Grubbs, AR (72431)

1:05 AM CDT on July 04, 2015 (GMT -0500)
Newport | | Change Station
CLOSE
Current Station
Airport
Location: Newport,
Elevation: 240 ft
Nearby Weather Stations
Active Advisory: Flood Warning Active Notice: Local Storm Report

Elev 240 ft 35.64 °N, 91.17 °W | Updated 9 minutes ago

Clear
Clear
71 °F
Feels Like 71 °F
N
4
Wind Variable Wind from SSW

Today
High -- | Low -- °F
--% Chance of Precip.
Yesterday
High -- | Low -- °F
Precip. -- in
5:53 AM 8:23 PM
Waning Gibbous, 94% visible
Pressure 29.91 in
Visibility 10.0 miles
Clouds Clear
Dew Point 71 °F
Humidity 100%
Rainfall 0.00 in
Snow Depth Not available.
UV 0 out of 12
Pollen .50 out of 12
Air Quality Not available.
Flu Activity Not available.
METAR KM19 040556Z AUTO 20003KT 10SM CLR 22/22 A2992 RMK AO2 50003 T02160216 10233 20216 SLP129

More Conditions Fewer Conditions

Pressure 29.91 in
Visibility 10.0 miles
Clouds Clear
Dew Point 71 °F
Humidity 100%
Rainfall 0.00 in
Snow Depth Not available.
UV 0 out of 12
Pollen .50 out of 12
Air Quality Not available.
Flu Activity Not available.
METAR KM19 040556Z AUTO 20003KT 10SM CLR 22/22 A2992 RMK AO2 50003 T02160216 10233 20216 SLP129

More Conditions Fewer Conditions

10-Day Weather Forecast

×

Almanac

Astronomy

Jul. 04, 2015 Rise Set
Actual Time
Civil Twilight
Nautical Twilight
Astronomical Twilight
Moon
Length of Visible Light
Length of Day
Tomorrow will be .
, % of the Moon is Illuminated

Today's Extremes

State Highs State Lows

Community

WunderPhotos

Upload Photos

1,834,926 photos uploaded!

WunderBlogs® & News

Nearby

Air Quality

  Air Quality AQ Index Pollutant
Not available.

Snow Depth

Station Depth Elevation

Earthquake Activity

City Distance Mag. Time & Date
Minimum magnitude displayed is 2.5.

Coastal Water Temperatures

Place Temperature

Stations

Nearby Weather Stations

Station Location Temp. Windchill Dew Point Humidity Wind Precip. Elev Updated Type
                   
Flood Warning
Statement as of 9:10 PM CDT on July 03, 2015

The Flood Warning continues for
the Cache River near Patterson.
* From Tuesday morning until further notice... or until the warning is
cancelled.
* At 8:00 PM Friday the stage was 5.2 feet.
* Minor flooding is forecast.
* Flood stage is 8.0 feet.
* Forecast... rise above flood stage by Tuesday morning and
continue to rise to near 9.0 feet by Thursday morning.
* Impacts at 8.0 feet... low swampy Timberland along the river begins
to flood. Flood gates should be closed and equipment moved out of the
low grounds along the river and tributaries.


             Fld observed forecast 7 am
location stg stg day time Sat sun Mon Tue Wed

Cache River
Patterson 8 5.2 Fri 08 PM 5.3 5.6 6.1 7.9 8.7




Lat... Lon 3510 9133 3522 9128 3539 9123 3538 9113
3521 9117 3508 9122